sensor_id;sensor_type;location;lat;lon;timestamp;P1;durP1;ratioP1;P2;durP2;ratioP2
28170;SDS011;15458;53.346;-1.688;2023-08-20T00:00:26;9.55;;;1.45;;
28170;SDS011;15458;53.346;-1.688;2023-08-20T00:02:58;9.68;;;1.38;;
28170;SDS011;15458;53.346;-1.688;2023-08-20T00:05:28;13.38;;;1.70;;
28170;SDS011;15458;53.346;-1.688;2023-08-20T00:07:54;10.45;;;2.00;;
28170;SDS011;15458;53.346;-1.688;2023-08-20T00:10:20;9.32;;;1.70;;
28170;SDS011;15458;53.346;-1.688;2023-08-20T00:12:45;9.95;;;1.73;;
28170;SDS011;15458;53.346;-1.688;2023-08-20T00:15:11;3.53;;;1.20;;
28170;SDS011;15458;53.346;-1.688;2023-08-20T00:17:37;9.20;;;1.50;;
28170;SDS011;15458;53.346;-1.688;2023-08-20T00:20:05;10.60;;;1.50;;
28170;SDS011;15458;53.346;-1.688;2023-08-20T00:22:38;9.73;;;1.40;;
28170;SDS011;15458;53.346;-1.688;2023-08-20T00:25:04;12.05;;;2.42;;
28170;SDS011;15458;53.346;-1.688;2023-08-20T00:27:31;9.77;;;2.00;;
28170;SDS011;15458;53.346;-1.688;2023-08-20T00:29:57;13.40;;;1.80;;
28170;SDS011;15458;53.346;-1.688;2023-08-20T00:32:23;7.35;;;1.70;;
28170;SDS011;15458;53.346;-1.688;2023-08-20T00:34:49;13.30;;;1.92;;
28170;SDS011;15458;53.346;-1.688;2023-08-20T00:37:15;7.07;;;1.88;;
28170;SDS011;15458;53.346;-1.688;2023-08-20T00:39:40;4.93;;;1.52;;
28170;SDS011;15458;53.346;-1.688;2023-08-20T00:42:06;13.48;;;2.08;;
28170;SDS011;15458;53.346;-1.688;2023-08-20T00:44:32;11.77;;;1.73;;
28170;SDS011;15458;53.346;-1.688;2023-08-20T00:47:01;10.40;;;2.20;;
28170;SDS011;15458;53.346;-1.688;2023-08-20T00:49:29;11.00;;;2.47;;
28170;SDS011;15458;53.346;-1.688;2023-08-20T00:51:56;9.32;;;1.50;;
28170;SDS011;15458;53.346;-1.688;2023-08-20T00:54:22;8.32;;;1.90;;
28170;SDS011;15458;53.346;-1.688;2023-08-20T00:56:49;7.72;;;1.60;;
28170;SDS011;15458;53.346;-1.688;2023-08-20T00:59:15;8.40;;;1.83;;
28170;SDS011;15458;53.346;-1.688;2023-08-20T01:01:41;6.72;;;1.60;;
28170;SDS011;15458;53.346;-1.688;2023-08-20T01:04:07;14.35;;;2.15;;
28170;SDS011;15458;53.346;-1.688;2023-08-20T01:06:39;11.38;;;1.92;;
28170;SDS011;15458;53.346;-1.688;2023-08-20T01:11:57;12.05;;;2.00;;
28170;SDS011;15458;53.346;-1.688;2023-08-20T01:14:25;8.48;;;1.67;;
28170;SDS011;15458;53.346;-1.688;2023-08-20T01:16:51;8.60;;;2.08;;
28170;SDS011;15458;53.346;-1.688;2023-08-20T01:19:17;8.40;;;1.60;;
28170;SDS011;15458;53.346;-1.688;2023-08-20T01:27:24;11.68;;;1.55;;
28170;SDS011;15458;53.346;-1.688;2023-08-20T01:29:55;10.95;;;1.70;;
28170;SDS011;15458;53.346;-1.688;2023-08-20T01:32:22;11.73;;;1.83;;
28170;SDS011;15458;53.346;-1.688;2023-08-20T01:34:49;14.43;;;1.90;;
28170;SDS011;15458;53.346;-1.688;2023-08-20T01:37:14;7.57;;;2.10;;
28170;SDS011;15458;53.346;-1.688;2023-08-20T01:39:41;13.45;;;1.73;;
28170;SDS011;15458;53.346;-1.688;2023-08-20T01:42:07;10.65;;;1.90;;
28170;SDS011;15458;53.346;-1.688;2023-08-20T01:44:32;11.10;;;1.70;;
28170;SDS011;15458;53.346;-1.688;2023-08-20T01:46:58;5.93;;;1.48;;
28170;SDS011;15458;53.346;-1.688;2023-08-20T01:49:24;8.02;;;1.55;;
28170;SDS011;15458;53.346;-1.688;2023-08-20T01:51:49;10.35;;;1.92;;
28170;SDS011;15458;53.346;-1.688;2023-08-20T01:54:15;9.75;;;1.52;;
28170;SDS011;15458;53.346;-1.688;2023-08-20T01:56:42;9.48;;;2.10;;
28170;SDS011;15458;53.346;-1.688;2023-08-20T01:59:07;13.88;;;2.00;;
28170;SDS011;15458;53.346;-1.688;2023-08-20T02:01:33;12.55;;;1.80;;
28170;SDS011;15458;53.346;-1.688;2023-08-20T02:03:59;11.43;;;2.15;;
28170;SDS011;15458;53.346;-1.688;2023-08-20T02:06:24;7.47;;;1.85;;
28170;SDS011;15458;53.346;-1.688;2023-08-20T02:08:50;10.32;;;1.80;;
28170;SDS011;15458;53.346;-1.688;2023-08-20T02:11:17;7.63;;;1.48;;
28170;SDS011;15458;53.346;-1.688;2023-08-20T02:13:43;11.05;;;1.70;;
28170;SDS011;15458;53.346;-1.688;2023-08-20T02:16:09;11.07;;;1.75;;
28170;SDS011;15458;53.346;-1.688;2023-08-20T02:18:35;14.55;;;4.05;;
28170;SDS011;15458;53.346;-1.688;2023-08-20T02:21:00;11.35;;;2.33;;
28170;SDS011;15458;53.346;-1.688;2023-08-20T02:23:26;9.63;;;1.70;;
28170;SDS011;15458;53.346;-1.688;2023-08-20T02:25:52;8.32;;;2.72;;
28170;SDS011;15458;53.346;-1.688;2023-08-20T02:28:18;18.27;;;1.60;;
28170;SDS011;15458;53.346;-1.688;2023-08-20T02:30:45;8.65;;;1.52;;
28170;SDS011;15458;53.346;-1.688;2023-08-20T02:33:11;7.40;;;1.67;;
28170;SDS011;15458;53.346;-1.688;2023-08-20T02:35:38;10.40;;;1.83;;
28170;SDS011;15458;53.346;-1.688;2023-08-20T02:38:04;12.23;;;2.60;;
28170;SDS011;15458;53.346;-1.688;2023-08-20T02:40:31;10.73;;;1.63;;
28170;SDS011;15458;53.346;-1.688;2023-08-20T02:42:57;11.60;;;1.60;;
28170;SDS011;15458;53.346;-1.688;2023-08-20T02:45:23;12.95;;;1.83;;
28170;SDS011;15458;53.346;-1.688;2023-08-20T02:47:49;12.75;;;1.88;;
28170;SDS011;15458;53.346;-1.688;2023-08-20T02:50:14;11.35;;;2.22;;
28170;SDS011;15458;53.346;-1.688;2023-08-20T02:52:44;12.25;;;2.10;;
28170;SDS011;15458;53.346;-1.688;2023-08-20T02:55:10;6.47;;;1.50;;
28170;SDS011;15458;53.346;-1.688;2023-08-20T02:57:36;19.45;;;2.55;;
28170;SDS011;15458;53.346;-1.688;2023-08-20T03:00:01;9.75;;;2.15;;
28170;SDS011;15458;53.346;-1.688;2023-08-20T03:02:27;9.95;;;1.70;;
28170;SDS011;15458;53.346;-1.688;2023-08-20T03:04:53;15.02;;;2.25;;
28170;SDS011;15458;53.346;-1.688;2023-08-20T03:07:21;5.05;;;1.60;;
28170;SDS011;15458;53.346;-1.688;2023-08-20T03:09:47;12.07;;;2.10;;
28170;SDS011;15458;53.346;-1.688;2023-08-20T03:12:13;12.98;;;2.00;;
28170;SDS011;15458;53.346;-1.688;2023-08-20T03:14:38;7.30;;;1.60;;
28170;SDS011;15458;53.346;-1.688;2023-08-20T03:17:04;7.13;;;1.67;;
28170;SDS011;15458;53.346;-1.688;2023-08-20T03:19:32;13.65;;;1.90;;
28170;SDS011;15458;53.346;-1.688;2023-08-20T03:21:59;10.38;;;1.70;;
28170;SDS011;15458;53.346;-1.688;2023-08-20T03:24:24;18.98;;;2.92;;
28170;SDS011;15458;53.346;-1.688;2023-08-20T03:26:50;8.80;;;2.80;;
28170;SDS011;15458;53.346;-1.688;2023-08-20T03:29:16;6.70;;;1.52;;
28170;SDS011;15458;53.346;-1.688;2023-08-20T03:31:41;8.98;;;2.05;;
28170;SDS011;15458;53.346;-1.688;2023-08-20T03:34:07;17.67;;;1.90;;
28170;SDS011;15458;53.346;-1.688;2023-08-20T03:36:34;12.70;;;2.15;;
28170;SDS011;15458;53.346;-1.688;2023-08-20T03:39:00;9.23;;;1.70;;
28170;SDS011;15458;53.346;-1.688;2023-08-20T03:41:25;14.68;;;2.83;;
28170;SDS011;15458;53.346;-1.688;2023-08-20T03:43:51;9.35;;;1.67;;
28170;SDS011;15458;53.346;-1.688;2023-08-20T03:46:17;7.72;;;1.52;;
28170;SDS011;15458;53.346;-1.688;2023-08-20T03:48:42;8.27;;;2.30;;
28170;SDS011;15458;53.346;-1.688;2023-08-20T03:51:08;9.20;;;1.85;;
28170;SDS011;15458;53.346;-1.688;2023-08-20T03:53:34;9.23;;;1.58;;
28170;SDS011;15458;53.346;-1.688;2023-08-20T03:55:59;11.20;;;1.88;;
28170;SDS011;15458;53.346;-1.688;2023-08-20T03:58:25;12.52;;;1.70;;
28170;SDS011;15458;53.346;-1.688;2023-08-20T04:00:50;11.57;;;1.63;;
28170;SDS011;15458;53.346;-1.688;2023-08-20T04:03:16;19.80;;;2.22;;
28170;SDS011;15458;53.346;-1.688;2023-08-20T04:05:44;8.80;;;1.85;;
28170;SDS011;15458;53.346;-1.688;2023-08-20T04:08:10;6.40;;;1.63;;
28170;SDS011;15458;53.346;-1.688;2023-08-20T04:10:41;12.23;;;1.95;;
28170;SDS011;15458;53.346;-1.688;2023-08-20T04:13:09;5.95;;;1.50;;
28170;SDS011;15458;53.346;-1.688;2023-08-20T04:15:34;9.90;;;1.92;;
28170;SDS011;15458;53.346;-1.688;2023-08-20T04:18:00;10.80;;;2.50;;
28170;SDS011;15458;53.346;-1.688;2023-08-20T04:20:25;7.07;;;1.35;;
28170;SDS011;15458;53.346;-1.688;2023-08-20T04:22:51;9.85;;;1.98;;
28170;SDS011;15458;53.346;-1.688;2023-08-20T04:25:17;10.18;;;1.95;;
28170;SDS011;15458;53.346;-1.688;2023-08-20T04:27:42;10.57;;;1.92;;
28170;SDS011;15458;53.346;-1.688;2023-08-20T04:30:08;12.98;;;2.20;;
28170;SDS011;15458;53.346;-1.688;2023-08-20T04:32:34;4.88;;;1.50;;
28170;SDS011;15458;53.346;-1.688;2023-08-20T04:35:00;7.63;;;2.08;;
28170;SDS011;15458;53.346;-1.688;2023-08-20T04:37:26;15.57;;;2.10;;
28170;SDS011;15458;53.346;-1.688;2023-08-20T04:39:51;13.07;;;2.30;;
28170;SDS011;15458;53.346;-1.688;2023-08-20T04:42:17;4.97;;;1.35;;
28170;SDS011;15458;53.346;-1.688;2023-08-20T04:44:43;14.57;;;1.77;;
28170;SDS011;15458;53.346;-1.688;2023-08-20T04:47:11;8.57;;;2.15;;
28170;SDS011;15458;53.346;-1.688;2023-08-20T04:49:40;6.80;;;1.60;;
28170;SDS011;15458;53.346;-1.688;2023-08-20T04:52:06;11.70;;;1.98;;
28170;SDS011;15458;53.346;-1.688;2023-08-20T04:54:32;16.13;;;2.45;;
28170;SDS011;15458;53.346;-1.688;2023-08-20T04:56:57;6.22;;;1.80;;
28170;SDS011;15458;53.346;-1.688;2023-08-20T04:59:23;12.38;;;2.17;;
28170;SDS011;15458;53.346;-1.688;2023-08-20T05:01:48;17.70;;;2.22;;
28170;SDS011;15458;53.346;-1.688;2023-08-20T05:04:14;15.60;;;2.70;;
28170;SDS011;15458;53.346;-1.688;2023-08-20T05:06:40;15.88;;;2.22;;
28170;SDS011;15458;53.346;-1.688;2023-08-20T05:09:05;13.75;;;2.10;;
28170;SDS011;15458;53.346;-1.688;2023-08-20T05:11:31;10.32;;;2.40;;
28170;SDS011;15458;53.346;-1.688;2023-08-20T05:13:58;14.63;;;4.32;;
28170;SDS011;15458;53.346;-1.688;2023-08-20T05:16:23;7.65;;;2.08;;
28170;SDS011;15458;53.346;-1.688;2023-08-20T05:18:49;17.38;;;2.42;;
28170;SDS011;15458;53.346;-1.688;2023-08-20T05:21:15;11.32;;;2.03;;
28170;SDS011;15458;53.346;-1.688;2023-08-20T05:23:40;10.77;;;1.70;;
28170;SDS011;15458;53.346;-1.688;2023-08-20T05:26:06;11.20;;;1.90;;
28170;SDS011;15458;53.346;-1.688;2023-08-20T05:28:32;12.93;;;2.47;;
28170;SDS011;15458;53.346;-1.688;2023-08-20T05:30:58;8.25;;;2.38;;
28170;SDS011;15458;53.346;-1.688;2023-08-20T05:33:24;7.95;;;2.33;;
28170;SDS011;15458;53.346;-1.688;2023-08-20T05:35:50;7.18;;;2.35;;
28170;SDS011;15458;53.346;-1.688;2023-08-20T05:38:16;7.47;;;2.10;;
28170;SDS011;15458;53.346;-1.688;2023-08-20T05:40:42;10.75;;;1.98;;
28170;SDS011;15458;53.346;-1.688;2023-08-20T05:43:07;12.10;;;2.42;;
28170;SDS011;15458;53.346;-1.688;2023-08-20T05:45:33;6.32;;;1.75;;
28170;SDS011;15458;53.346;-1.688;2023-08-20T05:47:59;13.73;;;2.33;;
28170;SDS011;15458;53.346;-1.688;2023-08-20T05:50:25;12.73;;;2.17;;
28170;SDS011;15458;53.346;-1.688;2023-08-20T05:52:51;10.02;;;1.80;;
28170;SDS011;15458;53.346;-1.688;2023-08-20T05:55:17;24.08;;;2.75;;
28170;SDS011;15458;53.346;-1.688;2023-08-20T05:57:43;12.65;;;2.45;;
28170;SDS011;15458;53.346;-1.688;2023-08-20T06:00:09;10.45;;;2.80;;
28170;SDS011;15458;53.346;-1.688;2023-08-20T06:02:36;6.20;;;2.03;;
28170;SDS011;15458;53.346;-1.688;2023-08-20T06:05:02;21.63;;;2.80;;
28170;SDS011;15458;53.346;-1.688;2023-08-20T06:07:30;15.68;;;3.10;;
28170;SDS011;15458;53.346;-1.688;2023-08-20T06:09:56;14.23;;;2.70;;
28170;SDS011;15458;53.346;-1.688;2023-08-20T06:12:22;15.75;;;2.67;;
28170;SDS011;15458;53.346;-1.688;2023-08-20T06:14:48;7.90;;;1.98;;
28170;SDS011;15458;53.346;-1.688;2023-08-20T06:17:14;11.15;;;2.00;;
28170;SDS011;15458;53.346;-1.688;2023-08-20T06:19:40;11.27;;;2.30;;
28170;SDS011;15458;53.346;-1.688;2023-08-20T06:22:05;11.38;;;1.98;;
28170;SDS011;15458;53.346;-1.688;2023-08-20T06:24:31;9.98;;;2.45;;
28170;SDS011;15458;53.346;-1.688;2023-08-20T06:26:57;13.63;;;2.38;;
28170;SDS011;15458;53.346;-1.688;2023-08-20T06:29:22;10.20;;;2.22;;
28170;SDS011;15458;53.346;-1.688;2023-08-20T06:31:48;15.27;;;2.75;;
28170;SDS011;15458;53.346;-1.688;2023-08-20T06:34:15;14.07;;;2.40;;
28170;SDS011;15458;53.346;-1.688;2023-08-20T06:36:41;8.38;;;1.90;;
28170;SDS011;15458;53.346;-1.688;2023-08-20T06:39:07;11.30;;;2.33;;
28170;SDS011;15458;53.346;-1.688;2023-08-20T06:41:33;16.80;;;2.20;;
28170;SDS011;15458;53.346;-1.688;2023-08-20T06:43:59;8.98;;;2.10;;
28170;SDS011;15458;53.346;-1.688;2023-08-20T06:46:24;11.90;;;2.45;;
28170;SDS011;15458;53.346;-1.688;2023-08-20T06:48:50;11.63;;;2.35;;
28170;SDS011;15458;53.346;-1.688;2023-08-20T06:51:18;11.57;;;2.50;;
28170;SDS011;15458;53.346;-1.688;2023-08-20T06:53:46;10.32;;;1.85;;
28170;SDS011;15458;53.346;-1.688;2023-08-20T06:56:12;11.77;;;2.05;;
28170;SDS011;15458;53.346;-1.688;2023-08-20T06:58:38;18.63;;;2.38;;
28170;SDS011;15458;53.346;-1.688;2023-08-20T07:01:04;11.48;;;2.40;;
28170;SDS011;15458;53.346;-1.688;2023-08-20T07:03:41;13.82;;;3.05;;
28170;SDS011;15458;53.346;-1.688;2023-08-20T07:06:09;18.42;;;2.30;;
28170;SDS011;15458;53.346;-1.688;2023-08-20T07:08:35;10.50;;;2.25;;
28170;SDS011;15458;53.346;-1.688;2023-08-20T07:11:03;14.82;;;2.72;;
28170;SDS011;15458;53.346;-1.688;2023-08-20T07:13:29;9.73;;;2.15;;
28170;SDS011;15458;53.346;-1.688;2023-08-20T07:15:55;8.70;;;2.35;;
28170;SDS011;15458;53.346;-1.688;2023-08-20T07:18:20;8.52;;;2.35;;
28170;SDS011;15458;53.346;-1.688;2023-08-20T07:20:46;11.25;;;2.03;;
28170;SDS011;15458;53.346;-1.688;2023-08-20T07:23:12;8.88;;;2.55;;
28170;SDS011;15458;53.346;-1.688;2023-08-20T07:25:38;8.80;;;1.88;;
28170;SDS011;15458;53.346;-1.688;2023-08-20T07:28:08;11.60;;;2.50;;
28170;SDS011;15458;53.346;-1.688;2023-08-20T07:30:34;8.63;;;2.20;;
28170;SDS011;15458;53.346;-1.688;2023-08-20T07:33:00;8.77;;;2.20;;
28170;SDS011;15458;53.346;-1.688;2023-08-20T07:35:27;13.63;;;2.45;;
28170;SDS011;15458;53.346;-1.688;2023-08-20T07:37:53;12.07;;;2.22;;
28170;SDS011;15458;53.346;-1.688;2023-08-20T07:40:19;9.68;;;2.70;;
28170;SDS011;15458;53.346;-1.688;2023-08-20T07:42:45;10.57;;;2.75;;
28170;SDS011;15458;53.346;-1.688;2023-08-20T07:45:10;9.00;;;2.10;;
28170;SDS011;15458;53.346;-1.688;2023-08-20T07:47:37;14.10;;;3.47;;
28170;SDS011;15458;53.346;-1.688;2023-08-20T07:50:05;6.38;;;2.20;;
28170;SDS011;15458;53.346;-1.688;2023-08-20T07:52:32;11.48;;;2.70;;
28170;SDS011;15458;53.346;-1.688;2023-08-20T07:54:58;9.27;;;2.35;;
28170;SDS011;15458;53.346;-1.688;2023-08-20T07:57:23;8.52;;;2.17;;
28170;SDS011;15458;53.346;-1.688;2023-08-20T07:59:49;13.18;;;2.15;;
28170;SDS011;15458;53.346;-1.688;2023-08-20T08:02:15;6.53;;;2.33;;
28170;SDS011;15458;53.346;-1.688;2023-08-20T08:04:41;7.93;;;2.47;;
28170;SDS011;15458;53.346;-1.688;2023-08-20T08:07:07;11.50;;;2.53;;
28170;SDS011;15458;53.346;-1.688;2023-08-20T08:09:33;10.02;;;2.47;;
28170;SDS011;15458;53.346;-1.688;2023-08-20T08:11:59;7.15;;;1.70;;
28170;SDS011;15458;53.346;-1.688;2023-08-20T08:14:25;15.65;;;2.22;;
28170;SDS011;15458;53.346;-1.688;2023-08-20T08:16:51;10.20;;;2.38;;
28170;SDS011;15458;53.346;-1.688;2023-08-20T08:19:17;10.00;;;2.10;;
28170;SDS011;15458;53.346;-1.688;2023-08-20T08:21:43;8.20;;;2.30;;
28170;SDS011;15458;53.346;-1.688;2023-08-20T08:24:09;9.07;;;1.75;;
28170;SDS011;15458;53.346;-1.688;2023-08-20T08:26:35;10.30;;;2.25;;
28170;SDS011;15458;53.346;-1.688;2023-08-20T08:29:02;7.63;;;1.75;;
28170;SDS011;15458;53.346;-1.688;2023-08-20T08:31:29;8.02;;;2.20;;
28170;SDS011;15458;53.346;-1.688;2023-08-20T08:33:54;10.65;;;2.53;;
28170;SDS011;15458;53.346;-1.688;2023-08-20T08:36:20;9.80;;;2.13;;
28170;SDS011;15458;53.346;-1.688;2023-08-20T08:38:46;3.95;;;1.25;;
28170;SDS011;15458;53.346;-1.688;2023-08-20T08:41:12;10.48;;;1.63;;
28170;SDS011;15458;53.346;-1.688;2023-08-20T08:43:38;11.93;;;1.90;;
28170;SDS011;15458;53.346;-1.688;2023-08-20T08:46:14;14.43;;;2.42;;
28170;SDS011;15458;53.346;-1.688;2023-08-20T08:48:44;10.02;;;1.60;;
28170;SDS011;15458;53.346;-1.688;2023-08-20T08:53:37;9.13;;;1.92;;
28170;SDS011;15458;53.346;-1.688;2023-08-20T08:56:03;17.20;;;2.63;;
28170;SDS011;15458;53.346;-1.688;2023-08-20T08:58:30;10.60;;;2.53;;
28170;SDS011;15458;53.346;-1.688;2023-08-20T09:00:57;7.38;;;1.80;;
28170;SDS011;15458;53.346;-1.688;2023-08-20T09:03:23;6.60;;;2.10;;
28170;SDS011;15458;53.346;-1.688;2023-08-20T09:05:50;10.05;;;1.80;;
28170;SDS011;15458;53.346;-1.688;2023-08-20T09:08:20;8.30;;;2.20;;
28170;SDS011;15458;53.346;-1.688;2023-08-20T09:10:54;10.65;;;2.33;;
28170;SDS011;15458;53.346;-1.688;2023-08-20T09:13:24;8.30;;;2.75;;
28170;SDS011;15458;53.346;-1.688;2023-08-20T09:16:02;11.73;;;2.72;;
28170;SDS011;15458;53.346;-1.688;2023-08-20T09:18:33;13.55;;;2.15;;
28170;SDS011;15458;53.346;-1.688;2023-08-20T09:23:31;8.10;;;2.03;;
28170;SDS011;15458;53.346;-1.688;2023-08-20T09:25:56;6.43;;;1.80;;
28170;SDS011;15458;53.346;-1.688;2023-08-20T09:28:22;9.65;;;2.47;;
28170;SDS011;15458;53.346;-1.688;2023-08-20T09:30:54;17.20;;;2.22;;
28170;SDS011;15458;53.346;-1.688;2023-08-20T09:33:21;6.90;;;1.67;;
28170;SDS011;15458;53.346;-1.688;2023-08-20T09:35:50;7.40;;;2.00;;
28170;SDS011;15458;53.346;-1.688;2023-08-20T09:38:20;7.68;;;1.50;;
28170;SDS011;15458;53.346;-1.688;2023-08-20T09:40:50;8.80;;;1.75;;
28170;SDS011;15458;53.346;-1.688;2023-08-20T09:43:17;9.38;;;1.52;;
28170;SDS011;15458;53.346;-1.688;2023-08-20T09:45:44;10.23;;;2.70;;
28170;SDS011;15458;53.346;-1.688;2023-08-20T09:48:13;8.52;;;1.50;;
28170;SDS011;15458;53.346;-1.688;2023-08-20T09:50:43;7.00;;;1.48;;
28170;SDS011;15458;53.346;-1.688;2023-08-20T09:53:16;6.20;;;1.50;;
28170;SDS011;15458;53.346;-1.688;2023-08-20T09:55:43;9.65;;;1.38;;
28170;SDS011;15458;53.346;-1.688;2023-08-20T09:58:10;6.85;;;1.52;;
28170;SDS011;15458;53.346;-1.688;2023-08-20T10:00:36;9.05;;;1.25;;
28170;SDS011;15458;53.346;-1.688;2023-08-20T10:03:03;4.38;;;1.25;;
28170;SDS011;15458;53.346;-1.688;2023-08-20T10:05:29;3.95;;;1.20;;
28170;SDS011;15458;53.346;-1.688;2023-08-20T10:07:56;6.93;;;1.50;;
28170;SDS011;15458;53.346;-1.688;2023-08-20T10:10:24;7.40;;;1.63;;
28170;SDS011;15458;53.346;-1.688;2023-08-20T10:12:50;2.72;;;1.20;;
28170;SDS011;15458;53.346;-1.688;2023-08-20T10:15:16;4.53;;;1.48;;
28170;SDS011;15458;53.346;-1.688;2023-08-20T10:17:43;7.78;;;1.58;;
28170;SDS011;15458;53.346;-1.688;2023-08-20T10:20:10;7.18;;;1.48;;
28170;SDS011;15458;53.346;-1.688;2023-08-20T10:22:40;5.63;;;1.83;;
28170;SDS011;15458;53.346;-1.688;2023-08-20T10:25:11;6.90;;;1.80;;
28170;SDS011;15458;53.346;-1.688;2023-08-20T10:27:39;6.55;;;1.98;;
28170;SDS011;15458;53.346;-1.688;2023-08-20T10:30:09;7.35;;;1.77;;
28170;SDS011;15458;53.346;-1.688;2023-08-20T10:35:17;4.38;;;1.30;;
28170;SDS011;15458;53.346;-1.688;2023-08-20T10:38:13;6.78;;;1.50;;
28170;SDS011;15458;53.346;-1.688;2023-08-20T10:51:27;4.40;;;1.10;;
28170;SDS011;15458;53.346;-1.688;2023-08-20T10:56:44;6.47;;;1.25;;
28170;SDS011;15458;53.346;-1.688;2023-08-20T10:59:15;5.18;;;1.30;;
28170;SDS011;15458;53.346;-1.688;2023-08-20T11:01:43;7.25;;;1.77;;
28170;SDS011;15458;53.346;-1.688;2023-08-20T11:04:10;6.97;;;1.23;;
28170;SDS011;15458;53.346;-1.688;2023-08-20T11:06:37;6.00;;;1.52;;
28170;SDS011;15458;53.346;-1.688;2023-08-20T11:09:04;4.50;;;1.80;;
28170;SDS011;15458;53.346;-1.688;2023-08-20T11:11:33;15.25;;;1.88;;
28170;SDS011;15458;53.346;-1.688;2023-08-20T11:14:06;9.20;;;1.60;;
28170;SDS011;15458;53.346;-1.688;2023-08-20T11:16:32;5.68;;;1.60;;
28170;SDS011;15458;53.346;-1.688;2023-08-20T11:19:02;3.22;;;1.15;;
28170;SDS011;15458;53.346;-1.688;2023-08-20T11:23:59;7.07;;;1.45;;
28170;SDS011;15458;53.346;-1.688;2023-08-20T11:26:26;4.18;;;1.63;;
28170;SDS011;15458;53.346;-1.688;2023-08-20T11:28:51;6.63;;;1.42;;
28170;SDS011;15458;53.346;-1.688;2023-08-20T11:31:17;4.07;;;1.42;;
28170;SDS011;15458;53.346;-1.688;2023-08-20T11:33:43;4.07;;;1.20;;
28170;SDS011;15458;53.346;-1.688;2023-08-20T11:36:09;4.93;;;1.20;;
28170;SDS011;15458;53.346;-1.688;2023-08-20T11:38:35;6.10;;;1.75;;
28170;SDS011;15458;53.346;-1.688;2023-08-20T11:41:00;6.13;;;1.02;;
28170;SDS011;15458;53.346;-1.688;2023-08-20T11:43:29;3.33;;;1.10;;
28170;SDS011;15458;53.346;-1.688;2023-08-20T11:45:55;3.42;;;0.93;;
28170;SDS011;15458;53.346;-1.688;2023-08-20T11:48:21;8.30;;;1.88;;
28170;SDS011;15458;53.346;-1.688;2023-08-20T11:50:47;6.38;;;1.23;;
28170;SDS011;15458;53.346;-1.688;2023-08-20T11:53:14;6.50;;;1.50;;
28170;SDS011;15458;53.346;-1.688;2023-08-20T11:55:40;8.02;;;1.83;;
28170;SDS011;15458;53.346;-1.688;2023-08-20T11:58:11;6.07;;;1.63;;
28170;SDS011;15458;53.346;-1.688;2023-08-20T12:00:37;7.63;;;1.27;;
28170;SDS011;15458;53.346;-1.688;2023-08-20T12:03:03;6.20;;;1.30;;
28170;SDS011;15458;53.346;-1.688;2023-08-20T12:05:30;6.05;;;1.20;;
28170;SDS011;15458;53.346;-1.688;2023-08-20T12:08:00;4.85;;;1.15;;
28170;SDS011;15458;53.346;-1.688;2023-08-20T12:10:27;6.43;;;1.20;;
28170;SDS011;15458;53.346;-1.688;2023-08-20T12:12:54;4.90;;;1.42;;
28170;SDS011;15458;53.346;-1.688;2023-08-20T12:15:22;3.58;;;0.98;;
28170;SDS011;15458;53.346;-1.688;2023-08-20T12:17:58;4.38;;;1.38;;
28170;SDS011;15458;53.346;-1.688;2023-08-20T12:20:28;4.18;;;1.27;;
28170;SDS011;15458;53.346;-1.688;2023-08-20T12:22:57;4.93;;;1.15;;
28170;SDS011;15458;53.346;-1.688;2023-08-20T12:25:25;4.63;;;1.10;;
28170;SDS011;15458;53.346;-1.688;2023-08-20T12:27:50;5.65;;;1.20;;
28170;SDS011;15458;53.346;-1.688;2023-08-20T12:30:16;5.38;;;1.40;;
28170;SDS011;15458;53.346;-1.688;2023-08-20T12:32:42;4.40;;;1.30;;
28170;SDS011;15458;53.346;-1.688;2023-08-20T12:35:07;4.40;;;1.10;;
28170;SDS011;15458;53.346;-1.688;2023-08-20T12:37:33;4.28;;;1.20;;
28170;SDS011;15458;53.346;-1.688;2023-08-20T12:39:59;3.80;;;1.02;;
28170;SDS011;15458;53.346;-1.688;2023-08-20T12:42:24;5.95;;;1.50;;
28170;SDS011;15458;53.346;-1.688;2023-08-20T12:44:50;2.88;;;1.20;;
28170;SDS011;15458;53.346;-1.688;2023-08-20T12:47:16;4.10;;;1.20;;
28170;SDS011;15458;53.346;-1.688;2023-08-20T12:49:41;4.03;;;1.10;;
28170;SDS011;15458;53.346;-1.688;2023-08-20T12:52:07;4.10;;;1.20;;
28170;SDS011;15458;53.346;-1.688;2023-08-20T12:54:33;3.90;;;1.23;;
28170;SDS011;15458;53.346;-1.688;2023-08-20T12:56:58;6.80;;;2.05;;
28170;SDS011;15458;53.346;-1.688;2023-08-20T12:59:24;5.97;;;1.40;;
28170;SDS011;15458;53.346;-1.688;2023-08-20T13:01:50;3.63;;;1.10;;
28170;SDS011;15458;53.346;-1.688;2023-08-20T13:04:15;3.78;;;1.23;;
28170;SDS011;15458;53.346;-1.688;2023-08-20T13:06:41;3.90;;;1.25;;
28170;SDS011;15458;53.346;-1.688;2023-08-20T13:09:07;4.53;;;1.85;;
28170;SDS011;15458;53.346;-1.688;2023-08-20T13:11:34;7.03;;;1.50;;
28170;SDS011;15458;53.346;-1.688;2023-08-20T13:14:01;4.30;;;1.58;;
28170;SDS011;15458;53.346;-1.688;2023-08-20T13:16:27;8.25;;;1.90;;
28170;SDS011;15458;53.346;-1.688;2023-08-20T13:18:54;6.55;;;2.33;;
28170;SDS011;15458;53.346;-1.688;2023-08-20T13:21:20;6.47;;;2.20;;
28170;SDS011;15458;53.346;-1.688;2023-08-20T13:23:46;3.75;;;1.70;;
28170;SDS011;15458;53.346;-1.688;2023-08-20T13:26:12;4.65;;;1.67;;
28170;SDS011;15458;53.346;-1.688;2023-08-20T13:28:40;4.18;;;1.17;;
28170;SDS011;15458;53.346;-1.688;2023-08-20T13:31:05;3.38;;;1.23;;
28170;SDS011;15458;53.346;-1.688;2023-08-20T13:33:31;4.50;;;1.58;;
28170;SDS011;15458;53.346;-1.688;2023-08-20T13:35:57;5.78;;;1.50;;
28170;SDS011;15458;53.346;-1.688;2023-08-20T13:38:23;4.60;;;1.35;;
28170;SDS011;15458;53.346;-1.688;2023-08-20T13:40:50;3.90;;;1.15;;
28170;SDS011;15458;53.346;-1.688;2023-08-20T13:43:15;4.07;;;1.30;;
28170;SDS011;15458;53.346;-1.688;2023-08-20T13:45:41;3.65;;;0.98;;
28170;SDS011;15458;53.346;-1.688;2023-08-20T13:48:07;2.20;;;0.90;;
28170;SDS011;15458;53.346;-1.688;2023-08-20T13:50:32;5.80;;;1.10;;
28170;SDS011;15458;53.346;-1.688;2023-08-20T13:52:58;3.38;;;0.82;;
28170;SDS011;15458;53.346;-1.688;2023-08-20T13:55:24;4.60;;;1.08;;
28170;SDS011;15458;53.346;-1.688;2023-08-20T13:57:49;4.30;;;1.20;;
28170;SDS011;15458;53.346;-1.688;2023-08-20T14:00:15;4.95;;;0.98;;
28170;SDS011;15458;53.346;-1.688;2023-08-20T14:02:41;2.40;;;0.75;;
28170;SDS011;15458;53.346;-1.688;2023-08-20T14:05:07;3.38;;;1.00;;
28170;SDS011;15458;53.346;-1.688;2023-08-20T14:07:33;5.20;;;0.80;;
28170;SDS011;15458;53.346;-1.688;2023-08-20T14:09:59;3.58;;;0.80;;
28170;SDS011;15458;53.346;-1.688;2023-08-20T14:12:25;4.20;;;0.90;;
28170;SDS011;15458;53.346;-1.688;2023-08-20T14:14:51;3.50;;;0.80;;
28170;SDS011;15458;53.346;-1.688;2023-08-20T14:17:16;3.45;;;0.98;;
28170;SDS011;15458;53.346;-1.688;2023-08-20T14:19:42;5.20;;;1.58;;
28170;SDS011;15458;53.346;-1.688;2023-08-20T14:22:07;2.72;;;0.75;;
28170;SDS011;15458;53.346;-1.688;2023-08-20T14:24:33;2.47;;;1.10;;
28170;SDS011;15458;53.346;-1.688;2023-08-20T14:26:59;3.28;;;1.20;;
28170;SDS011;15458;53.346;-1.688;2023-08-20T14:29:24;3.45;;;1.13;;
28170;SDS011;15458;53.346;-1.688;2023-08-20T14:31:50;2.95;;;1.00;;
28170;SDS011;15458;53.346;-1.688;2023-08-20T14:34:15;2.20;;;0.98;;
28170;SDS011;15458;53.346;-1.688;2023-08-20T14:36:41;1.70;;;0.90;;
28170;SDS011;15458;53.346;-1.688;2023-08-20T14:39:07;4.43;;;1.05;;
28170;SDS011;15458;53.346;-1.688;2023-08-20T14:41:33;2.80;;;0.80;;
28170;SDS011;15458;53.346;-1.688;2023-08-20T14:43:59;4.10;;;1.55;;
28170;SDS011;15458;53.346;-1.688;2023-08-20T14:46:24;3.40;;;1.33;;
28170;SDS011;15458;53.346;-1.688;2023-08-20T14:48:50;3.83;;;1.02;;
28170;SDS011;15458;53.346;-1.688;2023-08-20T14:51:16;3.83;;;0.90;;
28170;SDS011;15458;53.346;-1.688;2023-08-20T14:53:41;2.70;;;1.00;;
28170;SDS011;15458;53.346;-1.688;2023-08-20T14:56:10;4.40;;;1.10;;